Time;durP1;ratioP1;P1;durP2;ratioP2;P2;SDS_P1;SDS_P2;PMS_P1;PMS_P2;Temp;Humidity;BMP_temperature;BMP_pressure;BME280_temperature;BME280_humidity;BME280_pressure;Samples;Min_cycle;Max_cycle;Signal;HPM_P1;HPM_P2
2023/03/03 00:00:37;;;;;;;97.75;59.92;;;;;;;;;;5033266;28;20070;-68
2023/03/03 00:03:05;;;;;;;92.95;57.83;;;;;;;;;;5033530;28;20466;-68
2023/03/03 00:05:32;;;;;;;76.75;49.45;;;;;;;;;;5033623;28;20075;-68
2023/03/03 00:07:59;;;;;;;73.70;46.60;;;;;;;;;;5033292;28;20055;-69
2023/03/03 00:10:25;;;;;;;71.90;46.88;;;;;;;;;;5033330;28;20025;-69
2023/03/03 00:12:52;;;;;;;81.60;53.60;;;;;;;;;;5033170;28;20026;-68
2023/03/03 00:15:20;;;;;;;84.38;52.10;;;;;;;;;;5033141;28;20022;-68
2023/03/03 00:17:46;;;;;;;63.45;41.10;;;;;;;;;;5033496;28;20028;-69
2023/03/03 00:20:22;;;;;;;53.90;35.50;;;;;;;;;;5033369;28;20025;-68
2023/03/03 00:22:48;;;;;;;52.17;33.00;;;;;;;;;;5033308;28;20033;-68
2023/03/03 00:25:24;;;;;;;52.53;33.30;;;;;;;;;;5033035;28;20021;-68
2023/03/03 00:27:50;;;;;;;47.83;31.77;;;;;;;;;;5033068;28;20036;-68
2023/03/03 00:30:19;;;;;;;54.72;34.00;;;;;;;;;;5032621;28;20036;-68
2023/03/03 00:32:46;;;;;;;54.05;34.50;;;;;;;;;;5032834;28;20512;-68
2023/03/03 00:35:18;;;;;;;54.17;33.35;;;;;;;;;;5033193;28;20022;-68
2023/03/03 00:37:45;;;;;;;52.00;33.35;;;;;;;;;;5032799;28;20036;-68
2023/03/03 00:40:14;;;;;;;54.55;32.60;;;;;;;;;;5032777;28;20017;-68
2023/03/03 00:42:41;;;;;;;49.40;30.88;;;;;;;;;;5032660;28;20056;-68
2023/03/03 00:45:27;;;;;;;50.30;31.50;;;;;;;;;;5032423;28;20028;-68
2023/03/03 00:47:53;;;;;;;50.47;31.80;;;;;;;;;;5032693;28;20053;-68
2023/03/03 00:50:35;;;;;;;51.00;32.20;;;;;;;;;;5032647;28;20035;-68
2023/03/03 00:53:05;;;;;;;48.95;32.15;;;;;;;;;;5032565;28;20504;-68
2023/03/03 00:55:33;;;;;;;52.88;31.35;;;;;;;;;;5032516;28;20028;-68
2023/03/03 00:57:59;;;;;;;47.55;30.30;;;;;;;;;;5031230;28;20033;-68
2023/03/03 01:00:25;;;;;;;46.70;30.10;;;;;;;;;;5032535;28;20032;-68
2023/03/03 01:02:51;;;;;;;55.97;34.92;;;;;;;;;;5032589;28;20029;-68
2023/03/03 01:05:18;;;;;;;53.10;31.73;;;;;;;;;;5032354;28;20017;-68
2023/03/03 01:07:45;;;;;;;50.17;32.35;;;;;;;;;;5032327;28;20040;-68
2023/03/03 01:10:11;;;;;;;50.40;31.02;;;;;;;;;;5032162;28;20026;-68
2023/03/03 01:12:38;;;;;;;50.67;31.50;;;;;;;;;;5032395;28;20030;-68
2023/03/03 01:15:06;;;;;;;49.55;31.27;;;;;;;;;;5032655;28;20021;-69
2023/03/03 01:17:33;;;;;;;51.58;31.67;;;;;;;;;;5032420;28;20021;-68
2023/03/03 01:19:59;;;;;;;49.03;31.27;;;;;;;;;;5032707;28;20026;-68
2023/03/03 01:22:26;;;;;;;51.30;33.08;;;;;;;;;;5032517;28;20033;-68
2023/03/03 01:24:52;;;;;;;48.92;30.73;;;;;;;;;;5032364;28;20379;-68
2023/03/03 01:27:18;;;;;;;50.03;31.55;;;;;;;;;;5032014;28;20040;-69
2023/03/03 01:29:44;;;;;;;45.90;30.67;;;;;;;;;;5032375;28;20024;-68
2023/03/03 01:32:11;;;;;;;46.28;30.40;;;;;;;;;;5032504;28;20034;-68
2023/03/03 01:34:37;;;;;;;48.13;30.88;;;;;;;;;;5032082;28;20052;-68
2023/03/03 01:37:03;;;;;;;57.00;34.03;;;;;;;;;;5032263;28;20033;-69
2023/03/03 01:39:30;;;;;;;50.00;31.25;;;;;;;;;;5032073;28;20033;-69
2023/03/03 01:41:56;;;;;;;48.75;30.55;;;;;;;;;;5031746;28;20033;-68
2023/03/03 01:44:22;;;;;;;48.28;31.40;;;;;;;;;;5032116;28;20053;-68
2023/03/03 01:47:01;;;;;;;50.67;30.38;;;;;;;;;;5032019;28;20048;-68
2023/03/03 01:49:42;;;;;;;50.65;30.77;;;;;;;;;;5032171;28;20048;-67
2023/03/03 01:52:09;;;;;;;;;;;;;;;;;;5032425;28;20040;-68
2023/03/03 01:54:41;;;;;;;49.60;30.10;;;;;;;;;;5032005;28;20369;-68
2023/03/03 01:57:12;;;;;;;47.97;30.92;;;;;;;;;;5031897;28;20025;-68
2023/03/03 01:59:43;;;;;;;52.45;30.88;;;;;;;;;;5031970;28;20276;-68
2023/03/03 02:02:10;;;;;;;44.40;29.75;;;;;;;;;;5031864;28;20478;-68
2023/03/03 02:04:36;;;;;;;46.83;31.08;;;;;;;;;;5032271;28;20021;-68
2023/03/03 02:07:07;;;;;;;48.08;30.08;;;;;;;;;;5031954;28;20032;-68
2023/03/03 02:09:33;;;;;;;44.85;29.17;;;;;;;;;;5031891;28;20033;-68
2023/03/03 02:12:03;;;;;;;45.88;30.48;;;;;;;;;;5031825;28;20079;-68
2023/03/03 02:14:30;;;;;;;44.47;29.52;;;;;;;;;;5031953;28;20510;-68
2023/03/03 02:16:56;;;;;;;46.85;30.42;;;;;;;;;;5031838;28;20494;-68
2023/03/03 02:19:41;;;;;;;45.92;29.27;;;;;;;;;;5031849;28;20039;-68
2023/03/03 02:22:08;;;;;;;46.17;29.42;;;;;;;;;;5035049;28;20029;-68
2023/03/03 02:24:39;;;;;;;45.40;29.70;;;;;;;;;;5035307;28;20029;-68
2023/03/03 02:27:05;;;;;;;41.40;28.67;;;;;;;;;;5035246;28;20029;-68
2023/03/03 02:29:31;;;;;;;44.67;29.52;;;;;;;;;;5035599;28;20029;-68
2023/03/03 02:31:58;;;;;;;47.92;29.55;;;;;;;;;;5035019;28;20021;-68
2023/03/03 02:34:24;;;;;;;47.33;30.50;;;;;;;;;;5035269;28;20036;-68
2023/03/03 02:36:50;;;;;;;47.00;29.08;;;;;;;;;;5035195;28;20022;-68
2023/03/03 02:39:21;;;;;;;44.33;29.98;;;;;;;;;;5034870;28;20025;-68
2023/03/03 02:41:47;;;;;;;46.67;30.38;;;;;;;;;;5035046;28;20504;-68
2023/03/03 02:44:16;;;;;;;46.97;30.98;;;;;;;;;;5034640;28;20053;-68
2023/03/03 02:46:44;;;;;;;48.03;30.02;;;;;;;;;;5034749;28;20029;-68
2023/03/03 02:49:12;;;;;;;48.55;29.90;;;;;;;;;;5034868;28;20509;-68
2023/03/03 02:51:38;;;;;;;47.17;28.95;;;;;;;;;;5035005;28;20028;-68
2023/03/03 02:54:05;;;;;;;44.85;29.73;;;;;;;;;;5034282;28;20033;-68
2023/03/03 02:56:31;;;;;;;42.15;27.80;;;;;;;;;;5034670;28;20024;-68
2023/03/03 02:58:58;;;;;;;45.50;29.10;;;;;;;;;;5034710;28;20025;-68
2023/03/03 03:01:24;;;;;;;47.10;29.80;;;;;;;;;;5034791;28;20032;-68
2023/03/03 03:03:51;;;;;;;46.53;29.10;;;;;;;;;;5034702;28;20096;-68
2023/03/03 03:06:17;;;;;;;42.63;27.90;;;;;;;;;;5034676;28;20021;-69
2023/03/03 03:08:43;;;;;;;50.38;30.13;;;;;;;;;;5034082;28;20045;-68
2023/03/03 03:11:10;;;;;;;46.72;30.48;;;;;;;;;;5034410;28;20486;-68
2023/03/03 03:13:36;;;;;;;43.63;28.88;;;;;;;;;;5034574;28;20026;-68
2023/03/03 03:16:03;;;;;;;46.42;29.58;;;;;;;;;;5034379;28;20026;-68
2023/03/03 03:18:29;;;;;;;46.40;30.00;;;;;;;;;;5034321;28;20026;-68
2023/03/03 03:20:55;;;;;;;46.13;28.80;;;;;;;;;;5034285;28;20034;-68
2023/03/03 03:23:22;;;;;;;52.35;29.90;;;;;;;;;;5033754;28;20025;-68
2023/03/03 03:25:48;;;;;;;51.33;29.08;;;;;;;;;;5034436;28;20029;-68
2023/03/03 03:28:16;;;;;;;45.53;29.58;;;;;;;;;;5034136;28;20038;-68
2023/03/03 03:30:44;;;;;;;51.88;27.90;;;;;;;;;;5034112;28;20036;-68
2023/03/03 03:33:10;;;;;;;45.97;28.10;;;;;;;;;;5032813;28;20033;-68
2023/03/03 03:35:37;;;;;;;52.40;30.15;;;;;;;;;;5034079;28;20024;-68
2023/03/03 03:38:03;;;;;;;46.17;29.10;;;;;;;;;;5033471;28;20404;-68
2023/03/03 03:40:30;;;;;;;47.10;29.48;;;;;;;;;;5033885;28;20032;-68
2023/03/03 03:42:56;;;;;;;46.72;29.05;;;;;;;;;;5032759;28;20044;-68
2023/03/03 03:45:22;;;;;;;46.83;29.20;;;;;;;;;;5033615;28;20032;-68
2023/03/03 03:47:49;;;;;;;46.17;29.52;;;;;;;;;;5033786;28;20037;-68
2023/03/03 03:50:15;;;;;;;44.33;28.52;;;;;;;;;;5033704;28;20037;-68
2023/03/03 03:52:42;;;;;;;46.67;29.42;;;;;;;;;;5033607;28;20032;-68
2023/03/03 03:55:09;;;;;;;46.00;28.75;;;;;;;;;;5033818;28;20029;-68
2023/03/03 03:57:35;;;;;;;48.38;29.50;;;;;;;;;;5033547;28;20401;-68
2023/03/03 04:00:01;;;;;;;44.70;28.88;;;;;;;;;;5033478;28;20023;-68
2023/03/03 04:02:28;;;;;;;47.70;29.65;;;;;;;;;;5033523;28;20032;-68
2023/03/03 04:04:54;;;;;;;47.17;29.67;;;;;;;;;;5033329;28;20025;-68
2023/03/03 04:07:20;;;;;;;51.17;30.17;;;;;;;;;;5033024;28;20045;-68
2023/03/03 04:09:47;;;;;;;45.92;29.10;;;;;;;;;;5033463;28;20025;-68
2023/03/03 04:12:13;;;;;;;45.95;27.90;;;;;;;;;;5033545;28;20022;-67
2023/03/03 04:14:39;;;;;;;44.80;29.30;;;;;;;;;;5033305;28;20047;-67
2023/03/03 04:17:05;;;;;;;47.65;30.38;;;;;;;;;;5033472;28;20018;-68
2023/03/03 04:19:32;;;;;;;50.10;30.40;;;;;;;;;;5033146;28;20025;-67
2023/03/03 04:21:58;;;;;;;47.92;30.73;;;;;;;;;;5032806;28;20026;-68
2023/03/03 04:24:24;;;;;;;44.88;30.08;;;;;;;;;;5033331;28;20033;-68
2023/03/03 04:26:51;;;;;;;47.33;29.95;;;;;;;;;;5031888;28;20021;-68
2023/03/03 04:29:17;;;;;;;43.63;28.83;;;;;;;;;;5032938;28;20035;-68
2023/03/03 04:31:44;;;;;;;49.05;30.42;;;;;;;;;;5033128;28;20100;-68
2023/03/03 04:34:10;;;;;;;50.38;31.35;;;;;;;;;;5032834;28;20474;-68
2023/03/03 04:36:36;;;;;;;50.08;29.88;;;;;;;;;;5032521;28;20017;-68
2023/03/03 04:39:03;;;;;;;45.72;30.83;;;;;;;;;;5031562;28;20033;-68
2023/03/03 04:41:29;;;;;;;49.75;31.88;;;;;;;;;;5032622;28;20049;-68
2023/03/03 04:43:55;;;;;;;52.22;30.88;;;;;;;;;;5031986;28;20037;-68
2023/03/03 04:46:22;;;;;;;49.15;31.67;;;;;;;;;;5032806;28;20029;-68
2023/03/03 04:48:48;;;;;;;53.63;32.10;;;;;;;;;;5032589;28;20034;-68
2023/03/03 04:51:15;;;;;;;51.25;32.45;;;;;;;;;;5032275;28;20032;-68
2023/03/03 04:53:42;;;;;;;51.97;32.33;;;;;;;;;;5032554;28;20030;-68
2023/03/03 04:56:08;;;;;;;56.75;33.70;;;;;;;;;;5031457;28;20501;-68
2023/03/03 04:58:34;;;;;;;55.20;32.78;;;;;;;;;;5032705;28;20478;-68
2023/03/03 05:01:01;;;;;;;52.80;32.08;;;;;;;;;;5032576;28;20474;-68
2023/03/03 05:03:27;;;;;;;59.95;34.22;;;;;;;;;;5032523;28;20021;-68
2023/03/03 05:05:53;;;;;;;59.15;35.67;;;;;;;;;;5031232;28;20037;-67
2023/03/03 05:08:21;;;;;;;55.42;32.90;;;;;;;;;;5032587;28;20064;-68
2023/03/03 05:10:50;;;;;;;54.72;32.70;;;;;;;;;;5032601;28;20047;-68
2023/03/03 05:13:17;;;;;;;57.28;32.63;;;;;;;;;;5032558;28;20039;-68
2023/03/03 05:15:43;;;;;;;55.35;32.42;;;;;;;;;;5032481;28;20032;-68
2023/03/03 05:18:10;;;;;;;56.33;31.95;;;;;;;;;;5032484;28;20022;-68
2023/03/03 05:20:36;;;;;;;53.88;32.85;;;;;;;;;;5031980;28;20390;-69
2023/03/03 05:23:03;;;;;;;50.78;31.15;;;;;;;;;;5031530;28;20033;-68
2023/03/03 05:25:29;;;;;;;55.83;32.63;;;;;;;;;;5032361;28;20071;-68
2023/03/03 05:27:55;;;;;;;57.95;33.13;;;;;;;;;;5032406;28;20048;-68
2023/03/03 05:30:22;;;;;;;54.05;31.10;;;;;;;;;;5032604;28;20029;-68
2023/03/03 05:32:48;;;;;;;53.78;32.97;;;;;;;;;;5032085;28;20036;-68
2023/03/03 05:35:14;;;;;;;54.97;33.17;;;;;;;;;;5032047;28;20022;-68
2023/03/03 05:37:46;;;;;;;54.30;33.38;;;;;;;;;;5032205;28;20027;-68
2023/03/03 05:40:12;;;;;;;59.50;32.83;;;;;;;;;;5032039;28;20095;-68
2023/03/03 05:42:39;;;;;;;53.03;32.08;;;;;;;;;;5031847;28;20045;-68
2023/03/03 05:45:05;;;;;;;53.92;31.70;;;;;;;;;;5032299;28;20492;-68
2023/03/03 05:47:32;;;;;;;54.88;32.85;;;;;;;;;;5032067;28;20110;-68
2023/03/03 05:49:59;;;;;;;55.95;32.88;;;;;;;;;;5031840;28;20017;-68
2023/03/03 05:52:26;;;;;;;54.85;32.22;;;;;;;;;;5032035;28;20514;-68
2023/03/03 05:54:52;;;;;;;55.90;32.28;;;;;;;;;;5033587;28;20025;-68
2023/03/03 05:57:18;;;;;;;55.45;33.40;;;;;;;;;;5035733;28;20021;-68
2023/03/03 05:59:45;;;;;;;57.05;33.55;;;;;;;;;;5035963;28;20026;-68
2023/03/03 06:02:11;;;;;;;58.03;33.35;;;;;;;;;;5035554;28;20483;-68
2023/03/03 06:04:37;;;;;;;57.17;32.28;;;;;;;;;;5035340;28;20389;-68
2023/03/03 06:07:03;;;;;;;58.88;33.47;;;;;;;;;;5035664;28;20025;-68
2023/03/03 06:09:30;;;;;;;56.05;33.13;;;;;;;;;;5034598;28;20053;-68
2023/03/03 06:11:56;;;;;;;54.20;32.20;;;;;;;;;;5035487;28;20017;-68
2023/03/03 06:14:22;;;;;;;55.40;31.52;;;;;;;;;;5035580;28;20029;-68
2023/03/03 06:16:49;;;;;;;59.65;33.28;;;;;;;;;;5035354;28;20032;-68
2023/03/03 06:19:16;;;;;;;65.85;33.15;;;;;;;;;;5034906;28;20508;-68
2023/03/03 06:21:42;;;;;;;54.65;31.73;;;;;;;;;;5035433;28;20032;-68
2023/03/03 06:24:09;;;;;;;58.97;33.67;;;;;;;;;;5035271;28;20026;-68
2023/03/03 06:26:35;;;;;;;64.88;34.20;;;;;;;;;;5035244;28;20401;-68
2023/03/03 06:29:01;;;;;;;61.92;35.08;;;;;;;;;;5035203;28;20043;-69
2023/03/03 06:31:28;;;;;;;64.20;35.58;;;;;;;;;;5034650;28;20520;-68
2023/03/03 06:33:54;;;;;;;74.22;38.17;;;;;;;;;;5035078;28;20025;-68
2023/03/03 06:36:20;;;;;;;72.00;37.88;;;;;;;;;;5034988;28;20482;-68
2023/03/03 06:38:47;;;;;;;68.60;35.38;;;;;;;;;;5035142;28;20056;-68
2023/03/03 06:41:13;;;;;;;60.13;34.42;;;;;;;;;;5035318;28;20025;-69
2023/03/03 06:43:39;;;;;;;62.72;35.38;;;;;;;;;;5034664;28;20045;-68
2023/03/03 06:46:06;;;;;;;63.65;34.15;;;;;;;;;;5034649;28;20017;-68
2023/03/03 06:48:32;;;;;;;56.25;32.30;;;;;;;;;;5034829;28;20448;-68
2023/03/03 06:50:59;;;;;;;54.25;31.88;;;;;;;;;;5035160;28;20026;-68
2023/03/03 06:53:26;;;;;;;52.47;30.42;;;;;;;;;;5034587;28;20470;-68
2023/03/03 06:55:53;;;;;;;62.05;33.78;;;;;;;;;;5034751;28;20034;-68
2023/03/03 06:58:21;;;;;;;61.17;34.30;;;;;;;;;;5034740;28;20039;-68
2023/03/03 07:00:53;;;;;;;59.88;35.55;;;;;;;;;;5034458;28;20027;-68
2023/03/03 07:03:23;;;;;;;57.42;35.13;;;;;;;;;;5034456;28;20025;-68
2023/03/03 07:05:51;;;;;;;62.78;37.85;;;;;;;;;;5033966;28;20029;-68
2023/03/03 07:08:18;;;;;;;62.90;34.35;;;;;;;;;;5034486;28;20087;-68
2023/03/03 07:10:45;;;;;;;59.75;34.95;;;;;;;;;;5034396;28;20443;-68
2023/03/03 07:13:17;;;;;;;54.33;34.15;;;;;;;;;;5034341;28;20041;-69
2023/03/03 07:15:44;;;;;;;59.40;35.75;;;;;;;;;;5034001;28;20052;-68
2023/03/03 07:18:31;;;;;;;64.07;37.58;;;;;;;;;;5034370;28;20514;-68
2023/03/03 07:20:58;;;;;;;63.58;38.53;;;;;;;;;;5034462;28;20013;-68
2023/03/03 07:23:25;;;;;;;67.28;38.88;;;;;;;;;;5034238;28;20025;-69
2023/03/03 07:25:52;;;;;;;69.70;39.25;;;;;;;;;;5034101;28;20020;-68
2023/03/03 07:28:18;;;;;;;54.25;33.33;;;;;;;;;;5032822;28;20037;-68
2023/03/03 07:30:44;;;;;;;51.67;32.30;;;;;;;;;;5032361;28;20029;-69
2023/03/03 07:33:37;;;;;;;53.15;33.75;;;;;;;;;;5031265;28;20029;-68
2023/03/03 07:36:06;;;;;;;50.55;31.88;;;;;;;;;;5031966;28;20033;-68
2023/03/03 07:38:44;;;;;;;53.50;31.75;;;;;;;;;;5032386;28;20034;-69
2023/03/03 07:41:22;;;;;;;51.08;32.38;;;;;;;;;;5033600;28;20031;-69
2023/03/03 07:43:53;;;;;;;55.95;34.85;;;;;;;;;;5033007;28;20046;-68
2023/03/03 07:46:34;;;;;;;64.05;37.95;;;;;;;;;;5033387;28;20032;-69
2023/03/03 07:49:00;;;;;;;55.80;31.38;;;;;;;;;;5033293;28;20405;-68
2023/03/03 07:51:40;;;;;;;57.03;34.70;;;;;;;;;;5033071;28;20018;-68
2023/03/03 07:54:27;;;;;;;48.08;32.10;;;;;;;;;;5031747;28;20030;-69
2023/03/03 07:56:56;;;;;;;57.67;35.65;;;;;;;;;;5033562;28;20030;-69
2023/03/03 07:59:24;;;;;;;56.30;34.00;;;;;;;;;;5033021;28;20029;-69
2023/03/03 08:01:52;;;;;;;52.13;33.08;;;;;;;;;;5033349;28;20079;-69
2023/03/03 08:04:19;;;;;;;51.08;34.13;;;;;;;;;;5031814;28;20029;-68
2023/03/03 08:06:58;;;;;;;60.17;38.40;;;;;;;;;;5033037;28;20032;-69
2023/03/03 08:09:43;;;;;;;58.13;37.45;;;;;;;;;;5033248;28;20063;-69
2023/03/03 08:12:24;;;;;;;53.58;36.50;;;;;;;;;;5033004;28;20512;-69
2023/03/03 08:14:52;;;;;;;50.10;34.28;;;;;;;;;;5031439;28;20040;-69
2023/03/03 08:17:22;;;;;;;53.13;33.53;;;;;;;;;;5033178;28;20115;-69
2023/03/03 08:19:49;;;;;;;47.80;33.65;;;;;;;;;;5032800;28;20025;-69
2023/03/03 08:22:24;;;;;;;43.92;31.63;;;;;;;;;;5031629;28;20528;-69
2023/03/03 08:24:50;;;;;;;43.95;32.38;;;;;;;;;;5032973;28;20028;-69
2023/03/03 08:27:17;;;;;;;38.72;29.33;;;;;;;;;;5032546;28;20547;-69
2023/03/03 08:29:43;;;;;;;40.88;30.98;;;;;;;;;;5032399;28;20023;-69
2023/03/03 08:32:09;;;;;;;39.75;28.50;;;;;;;;;;5032666;28;20039;-69
2023/03/03 08:34:36;;;;;;;45.13;29.13;;;;;;;;;;5031737;28;20017;-69
2023/03/03 08:37:02;;;;;;;41.20;28.40;;;;;;;;;;5032479;28;20025;-69
2023/03/03 08:39:28;;;;;;;35.33;27.55;;;;;;;;;;5032162;28;20496;-69
2023/03/03 08:41:55;;;;;;;38.88;28.38;;;;;;;;;;5032515;28;20082;-68
2023/03/03 08:44:21;;;;;;;34.70;29.42;;;;;;;;;;5032307;28;20045;-69
2023/03/03 08:46:47;;;;;;;43.55;33.38;;;;;;;;;;5032358;28;20078;-69
2023/03/03 08:49:15;;;;;;;36.50;28.40;;;;;;;;;;5032381;28;20056;-69
2023/03/03 08:51:41;;;;;;;38.22;29.35;;;;;;;;;;5031964;28;20036;-69
2023/03/03 08:54:08;;;;;;;40.33;32.20;;;;;;;;;;5032239;28;20034;-69
2023/03/03 08:56:34;;;;;;;38.80;29.35;;;;;;;;;;5031968;28;20022;-69
2023/03/03 08:59:00;;;;;;;42.15;30.02;;;;;;;;;;5032255;28;20030;-69
2023/03/03 09:01:27;;;;;;;46.10;28.38;;;;;;;;;;5032740;28;20139;-69
2023/03/03 09:03:53;;;;;;;37.08;30.17;;;;;;;;;;5032113;28;20025;-69
2023/03/03 09:06:19;;;;;;;42.20;29.30;;;;;;;;;;5031734;28;20025;-69
2023/03/03 09:08:46;;;;;;;36.50;29.33;;;;;;;;;;5031876;28;20034;-69
2023/03/03 09:11:12;;;;;;;39.47;29.52;;;;;;;;;;5031730;28;20432;-69
2023/03/03 09:13:38;;;;;;;40.28;30.77;;;;;;;;;;5032324;28;20029;-68
2023/03/03 09:16:13;;;;;;;40.65;31.00;;;;;;;;;;5032654;28;20079;-69
2023/03/03 09:18:40;;;;;;;34.45;27.42;;;;;;;;;;5031872;28;20026;-69
2023/03/03 09:21:21;;;;;;;36.83;28.05;;;;;;;;;;5031950;28;20033;-69
2023/03/03 09:23:58;;;;;;;34.72;28.65;;;;;;;;;;5032118;28;20028;-69
2023/03/03 09:26:27;;;;;;;48.45;36.67;;;;;;;;;;5031814;28;20022;-68
2023/03/03 09:28:54;;;;;;;33.95;27.85;;;;;;;;;;5031786;28;20048;-69
2023/03/03 09:31:24;;;;;;;36.10;27.48;;;;;;;;;;5035977;28;20031;-69
2023/03/03 09:33:50;;;;;;;39.92;27.13;;;;;;;;;;5036227;28;20440;-69
2023/03/03 09:36:20;;;;;;;38.40;28.73;;;;;;;;;;5035599;28;20018;-68
2023/03/03 09:38:47;;;;;;;35.33;29.48;;;;;;;;;;5035764;28;20021;-68
2023/03/03 09:41:31;;;;;;;33.00;27.27;;;;;;;;;;5035523;28;20478;-68
2023/03/03 09:43:57;;;;;;;32.97;28.23;;;;;;;;;;5035512;28;20067;-68
2023/03/03 09:46:43;;;;;;;34.50;27.42;;;;;;;;;;5034804;28;20037;-69
2023/03/03 09:49:09;;;;;;;38.10;30.02;;;;;;;;;;5035562;28;20037;-69
2023/03/03 09:51:36;;;;;;;31.13;26.00;;;;;;;;;;5035572;28;20028;-69
2023/03/03 09:54:08;;;;;;;51.58;37.08;;;;;;;;;;5035535;28;20028;-69
2023/03/03 09:56:41;;;;;;;31.65;26.80;;;;;;;;;;5035359;28;20052;-69
2023/03/03 09:59:19;;;;;;;33.50;28.13;;;;;;;;;;5035497;28;20017;-69
2023/03/03 10:01:52;;;;;;;35.85;28.83;;;;;;;;;;5035508;28;20025;-69
2023/03/03 10:04:37;;;;;;;37.45;28.80;;;;;;;;;;5035773;28;20028;-69
2023/03/03 10:07:21;;;;;;;37.17;29.25;;;;;;;;;;5035259;28;20021;-68
2023/03/03 10:09:50;;;;;;;34.85;25.98;;;;;;;;;;5035124;28;20033;-68
2023/03/03 10:12:17;;;;;;;31.83;26.00;;;;;;;;;;5035190;28;20022;-68
2023/03/03 10:15:01;;;;;;;30.65;24.40;;;;;;;;;;5035015;28;20529;-68
2023/03/03 10:17:37;;;;;;;30.77;23.65;;;;;;;;;;5034901;28;20029;-69
2023/03/03 10:20:03;;;;;;;31.55;24.40;;;;;;;;;;5035119;28;20016;-68
2023/03/03 10:23:02;;;;;;;30.92;24.92;;;;;;;;;;5035124;28;20497;-69
2023/03/03 10:25:41;;;;;;;32.72;24.73;;;;;;;;;;5032408;28;20035;-68
2023/03/03 10:28:29;;;;;;;30.85;23.05;;;;;;;;;;5032818;28;20053;-69
2023/03/03 10:30:55;;;;;;;27.80;23.00;;;;;;;;;;5032909;28;20039;-69
2023/03/03 10:33:27;;;;;;;28.00;22.60;;;;;;;;;;5032648;28;20522;-69
2023/03/03 10:36:03;;;;;;;29.85;23.67;;;;;;;;;;5032721;28;20048;-68
2023/03/03 10:38:34;;;;;;;29.67;23.58;;;;;;;;;;5032241;28;20036;-68
2023/03/03 10:41:09;;;;;;;29.92;21.17;;;;;;;;;;5031364;28;20440;-69
2023/03/03 10:43:54;;;;;;;28.48;21.77;;;;;;;;;;5032338;28;20059;-69
2023/03/03 10:46:26;;;;;;;24.92;20.58;;;;;;;;;;5032688;28;20329;-69
2023/03/03 10:49:08;;;;;;;28.35;20.80;;;;;;;;;;5032222;28;20051;-68
2023/03/03 10:51:49;;;;;;;26.50;20.13;;;;;;;;;;5032487;28;20049;-69
2023/03/03 10:54:21;;;;;;;26.08;19.98;;;;;;;;;;5031881;28;20041;-69
2023/03/03 10:57:08;;;;;;;27.08;20.77;;;;;;;;;;5032314;28;20440;-69
2023/03/03 10:59:51;;;;;;;22.27;18.55;;;;;;;;;;5009752;28;20042;-69
2023/03/03 11:02:23;;;;;;;25.90;17.25;;;;;;;;;;4954008;29;20040;-69
2023/03/03 11:05:08;;;;;;;21.58;16.90;;;;;;;;;;4953778;29;20035;-69
2023/03/03 11:07:36;;;;;;;21.40;16.98;;;;;;;;;;4953269;29;20061;-69
2023/03/03 11:10:07;;;;;;;21.80;17.05;;;;;;;;;;4953900;29;20043;-68
2023/03/03 11:12:34;;;;;;;20.35;16.55;;;;;;;;;;4953793;29;20034;-69
2023/03/03 11:15:00;;;;;;;22.20;16.73;;;;;;;;;;4953969;29;20027;-68
2023/03/03 11:17:49;;;;;;;21.10;17.55;;;;;;;;;;4953836;29;20027;-69
2023/03/03 11:20:19;;;;;;;23.98;16.83;;;;;;;;;;4953797;29;20042;-69
2023/03/03 11:22:51;;;;;;;22.20;17.45;;;;;;;;;;4953624;29;20041;-68
2023/03/03 11:25:20;;;;;;;22.38;17.48;;;;;;;;;;4953504;29;20039;-68
2023/03/03 11:27:56;;;;;;;25.65;18.25;;;;;;;;;;4937644;29;20032;-68
2023/03/03 11:30:34;;;;;;;21.98;17.55;;;;;;;;;;4953956;29;20035;-68
2023/03/03 11:33:10;;;;;;;21.02;16.42;;;;;;;;;;4953584;29;20578;-68
2023/03/03 11:35:55;;;;;;;21.38;16.80;;;;;;;;;;4957262;28;20050;-69
2023/03/03 11:38:21;;;;;;;19.33;16.45;;;;;;;;;;5013927;28;20029;-69
2023/03/03 11:40:53;;;;;;;21.92;16.60;;;;;;;;;;5013845;28;20032;-69
2023/03/03 11:43:37;;;;;;;19.83;16.17;;;;;;;;;;5021675;28;20041;-69
2023/03/03 11:46:25;;;;;;;21.60;16.90;;;;;;;;;;5033667;28;20044;-69
2023/03/03 11:49:04;;;;;;;20.80;16.98;;;;;;;;;;5033404;28;20039;-69
2023/03/03 11:51:37;;;;;;;23.02;17.67;;;;;;;;;;5033081;28;20024;-69
2023/03/03 11:54:09;;;;;;;21.15;16.55;;;;;;;;;;5033170;28;20029;-69
2023/03/03 11:56:40;;;;;;;21.08;17.25;;;;;;;;;;5033600;28;20033;-69
2023/03/03 11:59:25;;;;;;;22.35;17.10;;;;;;;;;;5033479;28;20033;-69
2023/03/03 12:01:52;;;;;;;20.17;16.45;;;;;;;;;;5033554;28;20041;-68
2023/03/03 12:04:33;;;;;;;19.90;16.52;;;;;;;;;;5033603;28;20024;-68
2023/03/03 12:07:09;;;;;;;21.30;18.23;;;;;;;;;;5032864;28;20032;-69
2023/03/03 12:09:35;;;;;;;20.88;17.80;;;;;;;;;;5033104;28;20044;-69
2023/03/03 12:12:06;;;;;;;18.95;15.90;;;;;;;;;;5033072;28;20032;-69
2023/03/03 12:14:32;;;;;;;;;;;;;;;;;;5033834;28;20029;-69
2023/03/03 12:17:00;;;;;;;19.73;15.20;;;;;;;;;;5033485;28;19915;-69
2023/03/03 12:19:29;;;;;;;21.73;17.67;;;;;;;;;;5033050;28;20030;-69
2023/03/03 12:22:11;;;;;;;17.30;15.35;;;;;;;;;;5032919;28;20486;-69
2023/03/03 12:24:54;;;;;;;25.45;20.77;;;;;;;;;;5032908;28;20051;-69
2023/03/03 12:27:24;;;;;;;19.20;16.67;;;;;;;;;;5032725;28;20496;-68
2023/03/03 12:30:06;;;;;;;20.50;16.02;;;;;;;;;;5032905;28;20033;-68
2023/03/03 12:32:35;;;;;;;17.88;15.43;;;;;;;;;;5032828;28;20500;-68
2023/03/03 12:35:09;;;;;;;20.98;17.88;;;;;;;;;;5032752;28;20075;-68
2023/03/03 12:37:44;;;;;;;17.58;14.70;;;;;;;;;;5032643;28;20405;-69
2023/03/03 12:40:11;;;;;;;18.50;14.95;;;;;;;;;;5032410;28;20022;-68
2023/03/03 12:42:43;;;;;;;16.98;14.27;;;;;;;;;;5032537;28;20039;-68
2023/03/03 12:45:27;;;;;;;17.65;15.23;;;;;;;;;;5032667;28;20037;-68
2023/03/03 12:47:59;;;;;;;15.75;13.90;;;;;;;;;;5032793;28;20034;-68
2023/03/03 12:50:38;;;;;;;17.30;15.20;;;;;;;;;;5032087;28;20025;-68
2023/03/03 12:53:12;;;;;;;17.05;13.63;;;;;;;;;;5032537;28;20028;-68
2023/03/03 12:55:49;;;;;;;15.30;13.25;;;;;;;;;;5032526;28;20490;-68
2023/03/03 12:58:15;;;;;;;19.05;14.02;;;;;;;;;;5032679;28;20039;-68
2023/03/03 13:00:50;;;;;;;17.20;14.23;;;;;;;;;;5032318;28;20032;-68
2023/03/03 13:03:35;;;;;;;16.42;13.48;;;;;;;;;;5030725;28;20025;-68
2023/03/03 13:06:11;;;;;;;14.35;12.63;;;;;;;;;;5032156;28;20478;-68
2023/03/03 13:08:51;;;;;;;13.98;12.48;;;;;;;;;;5032482;28;20029;-68
2023/03/03 13:11:33;;;;;;;14.38;12.85;;;;;;;;;;5029012;28;20026;-68
2023/03/03 13:14:05;;;;;;;14.80;13.20;;;;;;;;;;5032071;28;20036;-68
2023/03/03 13:16:35;;;;;;;16.08;14.38;;;;;;;;;;5032209;28;20028;-68
2023/03/03 13:19:07;;;;;;;16.42;14.30;;;;;;;;;;5031778;28;20026;-68
2023/03/03 13:21:43;;;;;;;15.10;13.43;;;;;;;;;;5032204;28;20038;-68
2023/03/03 13:24:19;;;;;;;73.80;16.42;;;;;;;;;;5032106;28;20028;-68
2023/03/03 13:26:57;;;;;;;14.93;13.32;;;;;;;;;;5031908;28;20017;-68
2023/03/03 13:29:32;;;;;;;16.65;13.68;;;;;;;;;;5031708;28;20037;-68
2023/03/03 13:32:25;;;;;;;16.98;12.50;;;;;;;;;;5031686;28;20026;-68
2023/03/03 13:34:56;;;;;;;14.70;13.10;;;;;;;;;;5009889;28;20038;-68
2023/03/03 13:37:27;;;;;;;17.48;14.52;;;;;;;;;;5010324;28;20032;-68
2023/03/03 13:39:57;;;;;;;14.40;12.88;;;;;;;;;;5009958;28;20216;-68
2023/03/03 13:42:27;;;;;;;14.57;12.47;;;;;;;;;;5010194;28;20038;-68
2023/03/03 13:44:56;;;;;;;16.35;13.93;;;;;;;;;;5009893;28;20038;-68
2023/03/03 13:47:45;;;;;;;14.75;13.15;;;;;;;;;;5009428;28;20516;-68
2023/03/03 13:50:21;;;;;;;15.43;13.30;;;;;;;;;;5010100;28;20509;-68
2023/03/03 13:53:06;;;;;;;13.93;12.43;;;;;;;;;;5009738;28;20382;-68
2023/03/03 13:55:39;;;;;;;16.02;13.15;;;;;;;;;;5009986;28;20413;-68
2023/03/03 13:58:05;;;;;;;17.52;14.18;;;;;;;;;;5009661;28;20394;-68
2023/03/03 14:00:35;;;;;;;19.33;15.73;;;;;;;;;;5008791;28;20427;-68
2023/03/03 14:03:14;;;;;;;17.33;14.17;;;;;;;;;;5009746;28;20022;-68
2023/03/03 14:05:40;;;;;;;16.60;14.15;;;;;;;;;;5009839;28;20150;-68
2023/03/03 14:08:25;;;;;;;16.63;14.13;;;;;;;;;;5008984;28;20021;-68
2023/03/03 14:11:10;;;;;;;18.25;14.35;;;;;;;;;;5013382;28;20401;-68
2023/03/03 14:13:56;;;;;;;18.80;14.35;;;;;;;;;;5031353;28;20405;-68
2023/03/03 14:16:32;;;;;;;17.17;13.25;;;;;;;;;;5033318;28;20048;-68
2023/03/03 14:19:19;;;;;;;15.02;12.65;;;;;;;;;;5035162;28;20406;-68
2023/03/03 14:21:55;;;;;;;17.15;13.75;;;;;;;;;;5035075;28;20028;-68
2023/03/03 14:24:25;;;;;;;17.60;13.02;;;;;;;;;;5035093;28;20025;-68
2023/03/03 14:26:55;;;;;;;16.70;12.82;;;;;;;;;;5035026;28;20486;-68
2023/03/03 14:29:29;;;;;;;15.15;12.98;;;;;;;;;;5034799;28;20033;-68
2023/03/03 14:31:57;;;;;;;19.83;13.73;;;;;;;;;;5034567;28;20096;-67
2023/03/03 14:34:23;;;;;;;14.68;12.88;;;;;;;;;;5034455;28;20036;-68
2023/03/03 14:36:53;;;;;;;18.63;16.20;;;;;;;;;;5035064;28;20017;-68